Buckley Air Force Base
KBKF : now visible

Airfield :











YOU CAN JOIN US ON...

 
LOGIN :

Register | Disclaimer

   EN    FR    IT 

 









Legend :    VFR   Marginal VFR   IFR   Intensive IFR   Very Intensive IFR
Visi :
Ceiling :
>= 8 km
>= 3000ft
5 to 8 km
1000 to 3000 ft
1500m to 5 km
500 to 1000 ft
800 to 1500m
200 to 500 ft
< 800m
< 200 ft
Symbols :   Thunderstorms  Fog  Heavy snow  Heavy precipitations  Wind > 20 kt







- Airport Elevation : 5662 ft


KBKF - Buckley Air Force Base

CURRENT METAR :
  • 222358Z 20016KT 10SM SCT120 BKN200 30/03 A2998 RMK AO2A SLP074 T03020032 10325 20284 55005

EXPIRED METARs :
  • 222258Z 19013KT 10SM FEW080 SCT140 BKN200 31/02 A2996 RMK AO2A SLP067 T03100022
  • 222158Z 18016G24KT 10SM FEW080 SCT140 BKN200 29/03 A2996 RMK AO2A PK WND 16029/19 LTG DSNT N SLP070 T02910031

TAF AMD TAF KBKF
Valid from the 22 at 18:00 until the 23 at 23:00 UTC


221842Z 2218/2323 20009KT 9999 SCT100 QNH2998INS
BECMG 2219/2220 20009KT 9999 VCTS SCT100CB QNH2997INS
TEMPO 2220/2301 VRB25G35KT 8000 -TSRA BKN080CB
BECMG 2302/2303 19009KT 9999 NSW SCT120 QNH3002INS
BECMG 2317/2318 26009KT 9999 SCT150 QNH3004INS
BECMG 2320/2321 28009KT 9999 VCTS SCT100CB QNH3005INS TX32/2221Z TN15/2311Z
No reported NOTAMs for that airfield.



MET'MAP, your aeronautical weather chart ! - Copyright ORBIFLY December 2007 - Disclaimer

ORBIFLY MET'MAP TEAM :

Programming & Development : Alexandra Zaïnal
Concept & Development : Baudouin d'Aumeries
Co-Development & Prog : Marc-Olivier Méhu
Technical & hardware support : Manuel Goepfert

Contact : metmap@orbifly.com




SOURCES & CREDITS :

   NOAA       Earth
Advisory